Time;durP1;ratioP1;P1;durP2;ratioP2;P2;SDS_P1;SDS_P2;PMS_P1;PMS_P2;Temp;Humidity;BMP_temperature;BMP_pressure;BME280_temperature;BME280_humidity;BME280_pressure;Samples;Min_cycle;Max_cycle;Signal;HPM_P1;HPM_P2
2021/07/09 00:01:14;;;;;;;13.82;9.60;;;18.60;99.90;;;;;;4992620;28;20079;-34
2021/07/09 00:03:41;;;;;;;10.02;8.93;;;18.60;99.90;;;;;;4992394;28;20014;-34
2021/07/09 00:06:07;;;;;;;10.40;9.40;;;18.50;99.90;;;;;;4992750;28;20101;-33
2021/07/09 00:08:36;;;;;;;9.98;8.85;;;18.50;99.90;;;;;;4992601;28;20029;-34
2021/07/09 00:11:04;;;;;;;9.68;8.70;;;18.40;99.90;;;;;;4991178;28;20452;-33
2021/07/09 00:13:29;;;;;;;10.23;8.63;;;18.40;99.90;;;;;;4992559;28;20038;-33
2021/07/09 00:15:55;;;;;;;11.13;7.78;;;18.40;99.90;;;;;;4991938;28;20030;-33
2021/07/09 00:18:20;;;;;;;10.60;9.45;;;18.30;99.90;;;;;;4992440;28;20018;-34
2021/07/09 00:20:47;;;;;;;12.63;9.20;;;18.30;99.90;;;;;;4992433;28;20562;-33
2021/07/09 00:23:13;;;;;;;10.82;9.73;;;18.30;99.90;;;;;;4991825;28;20026;-34
2021/07/09 00:25:41;;;;;;;10.70;8.50;;;18.30;99.90;;;;;;4992341;28;20084;-34
2021/07/09 00:28:06;;;;;;;10.75;8.38;;;18.30;99.90;;;;;;4991371;28;20458;-33
2021/07/09 00:30:32;;;;;;;11.95;9.05;;;18.30;99.90;;;;;;4991272;28;20355;-34
2021/07/09 00:32:58;;;;;;;12.75;9.35;;;18.40;99.90;;;;;;4991686;28;20145;-34
2021/07/09 00:35:23;;;;;;;9.75;8.52;;;18.40;99.90;;;;;;4992306;28;20018;-34
2021/07/09 00:37:49;;;;;;;10.82;9.20;;;18.40;99.90;;;;;;4991998;28;20034;-34
2021/07/09 00:40:15;;;;;;;11.85;10.00;;;18.40;99.90;;;;;;4991852;28;20041;-33
2021/07/09 00:42:42;;;;;;;13.43;10.00;;;18.40;99.90;;;;;;4991239;28;20026;-33
2021/07/09 00:45:09;;;;;;;12.68;10.25;;;18.30;99.90;;;;;;4992338;28;20092;-33
2021/07/09 00:47:35;;;;;;;11.25;10.02;;;18.30;99.90;;;;;;4992280;28;20019;-33
2021/07/09 00:50:02;;;;;;;11.32;10.13;;;18.20;99.90;;;;;;4990587;28;20537;-33
2021/07/09 00:52:28;;;;;;;13.00;9.75;;;18.10;99.90;;;;;;4992538;28;20030;-33
2021/07/09 00:54:53;;;;;;;11.85;9.73;;;18.10;99.90;;;;;;4991181;28;20026;-33
2021/07/09 00:57:19;;;;;;;9.90;8.90;;;18.10;99.90;;;;;;4991419;28;20018;-33
2021/07/09 00:59:45;;;;;;;9.70;8.68;;;18.10;99.90;;;;;;4991412;28;20132;-33
2021/07/09 01:02:10;;;;;;;12.77;11.02;;;18.00;99.90;;;;;;4991346;28;20027;-33
2021/07/09 01:04:36;;;;;;;12.43;11.13;;;18.00;99.90;;;;;;4991038;28;20010;-34
2021/07/09 01:07:03;;;;;;;13.73;10.63;;;17.90;99.90;;;;;;4991251;28;20026;-33
2021/07/09 01:09:28;;;;;;;19.40;11.73;;;17.90;99.90;;;;;;4990917;28;20042;-33
2021/07/09 01:11:55;;;;;;;14.18;10.70;;;17.90;99.90;;;;;;4990554;28;20382;-34
2021/07/09 01:14:22;;;;;;;13.80;10.82;;;17.80;99.90;;;;;;4990373;28;20022;-34
2021/07/09 01:16:49;;;;;;;13.18;10.10;;;17.80;99.90;;;;;;4991369;28;20153;-33
2021/07/09 01:19:20;;;;;;;14.90;12.60;;;17.70;99.90;;;;;;4989399;28;20136;-33
2021/07/09 01:21:47;;;;;;;14.75;12.25;;;17.60;99.90;;;;;;4991418;28;20033;-33
2021/07/09 01:24:13;;;;;;;15.48;12.70;;;17.50;99.90;;;;;;4990632;28;20041;-33
2021/07/09 01:26:40;;;;;;;13.70;11.93;;;17.40;99.90;;;;;;4990846;28;20022;-33
2021/07/09 01:29:07;;;;;;;16.02;12.18;;;17.40;99.90;;;;;;4990787;28;20071;-33
2021/07/09 01:31:34;;;;;;;15.05;11.55;;;17.30;99.90;;;;;;4991020;28;20018;-33
2021/07/09 01:34:08;;;;;;;11.65;10.10;;;17.30;99.90;;;;;;4989135;28;20503;-33
2021/07/09 01:36:34;;;;;;;16.92;11.63;;;17.30;99.90;;;;;;4990676;28;20028;-33
2021/07/09 01:39:00;;;;;;;15.00;10.43;;;17.30;99.90;;;;;;4989779;28;20031;-33
2021/07/09 01:41:25;;;;;;;10.88;9.25;;;17.30;99.90;;;;;;4990936;28;20030;-33
2021/07/09 01:43:51;;;;;;;17.58;10.70;;;17.40;99.90;;;;;;4990367;28;20023;-33
2021/07/09 01:46:17;;;;;;;13.57;11.43;;;17.40;99.90;;;;;;4989703;28;20108;-33
2021/07/09 01:48:42;;;;;;;14.55;11.10;;;17.50;99.90;;;;;;4990842;28;20023;-33
2021/07/09 01:51:08;;;;;;;17.30;11.73;;;17.50;99.90;;;;;;4990211;28;20033;-33
2021/07/09 01:53:36;;;;;;;13.88;11.93;;;17.60;99.90;;;;;;4990009;28;20018;-33
2021/07/09 01:56:02;;;;;;;13.98;11.07;;;17.60;99.90;;;;;;4989555;28;20022;-33
2021/07/09 01:58:27;;;;;;;14.85;10.63;;;17.60;99.90;;;;;;4991115;28;20037;-33
2021/07/09 02:00:53;;;;;;;15.10;11.32;;;17.60;99.90;;;;;;4988221;28;20121;-33
2021/07/09 02:03:19;;;;;;;15.40;12.52;;;17.60;99.90;;;;;;4990708;28;20023;-33
2021/07/09 02:05:45;;;;;;;13.57;10.82;;;17.60;99.90;;;;;;4990127;28;20077;-33
2021/07/09 02:08:11;;;;;;;14.10;11.13;;;17.60;99.90;;;;;;4989074;28;20585;-33
2021/07/09 02:10:42;;;;;;;13.43;11.05;;;17.50;99.90;;;;;;4990239;28;20050;-33
2021/07/09 02:13:09;;;;;;;12.80;10.90;;;17.50;99.90;;;;;;4990262;28;20106;-33
2021/07/09 02:15:35;;;;;;;13.43;10.68;;;17.50;99.90;;;;;;4989981;28;20037;-33
2021/07/09 02:18:02;;;;;;;13.05;10.75;;;17.50;99.90;;;;;;4989285;28;20426;-34
2021/07/09 02:20:28;;;;;;;13.77;11.73;;;17.50;99.90;;;;;;4990502;28;20125;-33
2021/07/09 02:22:58;;;;;;;12.38;10.38;;;17.40;99.90;;;;;;4989052;28;20042;-34
2021/07/09 02:25:27;;;;;;;14.60;11.73;;;17.40;99.90;;;;;;4990465;28;20077;-33
2021/07/09 02:27:54;;;;;;;14.32;10.88;;;17.40;99.90;;;;;;4990431;28;20030;-33
2021/07/09 02:30:21;;;;;;;17.02;12.98;;;17.30;99.90;;;;;;4989780;28;20129;-33
2021/07/09 02:32:47;;;;;;;14.80;11.93;;;17.30;99.90;;;;;;4989283;28;20492;-33
2021/07/09 02:35:19;;;;;;;15.60;11.77;;;17.30;99.90;;;;;;4989552;28;20120;-33
2021/07/09 02:37:46;;;;;;;13.87;11.63;;;17.30;99.90;;;;;;4989450;28;20109;-33
2021/07/09 02:40:13;;;;;;;14.70;11.88;;;17.30;99.90;;;;;;4989500;28;20042;-33
2021/07/09 02:42:40;;;;;;;16.00;12.25;;;17.20;99.90;;;;;;4989912;28;20052;-34
2021/07/09 02:45:08;;;;;;;14.77;11.50;;;17.20;99.90;;;;;;4989030;28;20030;-33
2021/07/09 02:47:33;;;;;;;14.63;11.70;;;17.20;99.90;;;;;;4989486;28;20010;-33
2021/07/09 02:49:59;;;;;;;14.07;11.80;;;17.10;99.90;;;;;;4988800;28;20370;-33
2021/07/09 02:52:24;;;;;;;13.95;12.50;;;17.10;99.90;;;;;;4989632;28;20088;-33
2021/07/09 02:54:50;;;;;;;13.82;11.68;;;17.10;99.90;;;;;;4989690;28;20536;-33
2021/07/09 02:57:15;;;;;;;14.07;11.82;;;17.10;99.90;;;;;;4988657;28;20027;-33
2021/07/09 02:59:41;;;;;;;14.52;12.07;;;17.10;99.90;;;;;;4989433;28;20018;-33
2021/07/09 03:02:06;;;;;;;12.95;10.80;;;17.10;99.90;;;;;;4989917;28;20494;-33
2021/07/09 03:04:32;;;;;;;13.82;11.43;;;17.10;99.90;;;;;;4989042;28;20034;-33
2021/07/09 03:06:57;;;;;;;13.65;10.70;;;17.10;99.90;;;;;;4989522;28;20030;-33
2021/07/09 03:09:23;;;;;;;11.48;10.10;;;17.20;99.90;;;;;;4989176;28;20061;-33
2021/07/09 03:11:48;;;;;;;10.48;9.38;;;17.20;99.90;;;;;;4989583;28;20167;-33
2021/07/09 03:14:17;;;;;;;11.85;9.60;;;17.30;99.90;;;;;;4989133;28;20027;-33
2021/07/09 03:16:43;;;;;;;11.18;9.52;;;17.20;99.90;;;;;;4989564;28;20459;-33
2021/07/09 03:19:08;;;;;;;11.07;9.35;;;17.20;99.90;;;;;;4988832;28;20019;-34
2021/07/09 03:21:37;;;;;;;11.07;8.45;;;17.20;99.90;;;;;;4988696;28;20030;-32
2021/07/09 03:24:04;;;;;;;9.93;8.93;;;17.20;99.90;;;;;;4989017;28;20412;-32
2021/07/09 03:26:31;;;;;;;11.38;9.88;;;17.10;99.90;;;;;;4988346;28;20037;-31
2021/07/09 03:28:59;;;;;;;10.48;8.80;;;17.10;99.90;;;;;;4988618;28;20034;-32
2021/07/09 03:31:27;;;;;;;11.05;9.38;;;17.10;99.90;;;;;;4989249;28;20019;-32
2021/07/09 03:33:53;;;;;;;14.18;9.10;;;17.10;99.90;;;;;;4988771;28;20521;-31
2021/07/09 03:36:19;;;;;;;10.25;9.13;;;17.10;99.90;;;;;;4989500;28;20109;-32
2021/07/09 03:38:44;;;;;;;11.35;9.50;;;17.00;99.90;;;;;;4988330;28;20022;-32
2021/07/09 03:41:10;;;;;;;11.98;9.43;;;17.00;99.90;;;;;;4989020;28;20793;-32
2021/07/09 03:43:35;;;;;;;10.93;9.27;;;16.90;99.90;;;;;;4989211;28;20430;-32
2021/07/09 03:46:03;;;;;;;12.77;9.40;;;16.80;99.90;;;;;;4987542;28;20019;-34
2021/07/09 03:48:30;;;;;;;12.50;9.80;;;16.80;99.90;;;;;;4989855;28;20054;-31
2021/07/09 03:50:55;;;;;;;12.20;9.55;;;16.70;99.90;;;;;;4988104;28;20022;-31
2021/07/09 03:53:21;;;;;;;12.00;8.93;;;16.70;99.90;;;;;;4989091;28;20033;-31
2021/07/09 03:55:46;;;;;;;12.10;9.35;;;16.70;99.90;;;;;;4989369;28;20030;-32
2021/07/09 03:58:12;;;;;;;13.70;10.57;;;16.70;99.90;;;;;;4992155;28;20473;-32
2021/07/09 04:00:38;;;;;;;11.30;9.57;;;16.80;99.90;;;;;;4992123;28;20066;-32
2021/07/09 04:03:03;;;;;;;14.23;10.07;;;16.80;99.90;;;;;;4992559;28;20077;-33
2021/07/09 04:05:29;;;;;;;16.92;11.20;;;16.90;99.90;;;;;;4993285;28;20026;-33
2021/07/09 04:07:54;;;;;;;13.05;9.70;;;16.90;99.90;;;;;;4991444;28;20444;-33
2021/07/09 04:10:27;;;;;;;15.65;10.70;;;16.90;99.90;;;;;;4992090;28;20042;-33
2021/07/09 04:12:55;;;;;;;13.63;10.15;;;17.00;99.90;;;;;;4992780;28;20501;-33
2021/07/09 04:15:20;;;;;;;14.13;11.35;;;16.90;99.90;;;;;;4991871;28;20457;-33
2021/07/09 04:17:46;;;;;;;16.88;12.10;;;16.90;99.90;;;;;;4981199;28;20054;-31
2021/07/09 04:20:12;;;;;;;14.93;12.20;;;16.80;99.90;;;;;;4991866;28;20042;-32
2021/07/09 04:22:39;;;;;;;16.02;12.93;;;16.70;99.90;;;;;;4991382;28;20477;-31
2021/07/09 04:25:08;;;;;;;14.85;12.27;;;16.60;99.90;;;;;;4991716;28;20049;-40
2021/07/09 04:27:35;;;;;;;14.23;11.43;;;16.60;99.90;;;;;;4991340;28;20469;-33
2021/07/09 04:30:01;;;;;;;14.65;12.20;;;16.60;99.90;;;;;;4991731;28;20153;-33
2021/07/09 04:32:28;;;;;;;16.02;12.95;;;16.60;99.90;;;;;;4992070;28;20034;-33
2021/07/09 04:34:54;;;;;;;14.57;11.60;;;16.70;99.90;;;;;;4991246;28;20026;-33
2021/07/09 04:37:20;;;;;;;14.80;12.38;;;16.70;99.90;;;;;;4992724;28;20045;-33
2021/07/09 04:39:45;;;;;;;16.63;12.15;;;16.80;99.90;;;;;;4991763;28;20022;-33
2021/07/09 04:42:12;;;;;;;15.48;11.95;;;16.80;99.90;;;;;;4990411;28;20068;-33
2021/07/09 04:44:38;;;;;;;15.25;12.13;;;16.80;99.90;;;;;;4992386;28;20058;-32
2021/07/09 04:47:04;;;;;;;16.80;11.50;;;16.80;99.90;;;;;;4990988;28;20065;-32
2021/07/09 04:49:29;;;;;;;16.35;12.23;;;16.90;99.90;;;;;;4991333;28;20022;-33
2021/07/09 04:51:55;;;;;;;17.20;13.13;;;16.90;99.90;;;;;;4991570;28;20022;-32
2021/07/09 04:54:21;;;;;;;16.85;11.70;;;16.80;99.90;;;;;;4991737;28;20035;-32
2021/07/09 04:56:47;;;;;;;18.58;12.70;;;16.80;99.90;;;;;;4990976;28;20034;-32
2021/07/09 04:59:13;;;;;;;16.58;12.48;;;16.70;99.90;;;;;;4991986;28;20026;-32
2021/07/09 05:01:38;;;;;;;16.92;13.13;;;16.70;99.90;;;;;;4992299;28;20038;-32
2021/07/09 05:04:07;;;;;;;16.98;12.55;;;16.70;99.90;;;;;;4991118;28;20470;-33
2021/07/09 05:06:33;;;;;;;14.10;11.35;;;16.70;99.90;;;;;;4991708;28;20117;-32
2021/07/09 05:09:00;;;;;;;15.85;11.43;;;16.70;99.90;;;;;;4990653;28;20581;-32
2021/07/09 05:11:28;;;;;;;14.90;11.63;;;16.70;99.90;;;;;;4991228;28;20050;-32
2021/07/09 05:13:53;;;;;;;14.68;11.63;;;16.70;99.90;;;;;;4991012;28;20033;-32
2021/07/09 05:16:19;;;;;;;13.75;11.25;;;16.80;99.90;;;;;;4992378;28;20022;-32
2021/07/09 05:18:45;;;;;;;18.05;13.52;;;16.80;99.90;;;;;;4990714;28;20477;-33
2021/07/09 05:21:10;;;;;;;18.23;12.65;;;16.80;99.90;;;;;;4991187;28;20129;-33
2021/07/09 05:23:36;;;;;;;16.23;11.85;;;16.90;99.90;;;;;;4991329;28;20105;-32
2021/07/09 05:26:02;;;;;;;16.70;11.45;;;16.80;99.90;;;;;;4990527;28;20022;-33
2021/07/09 05:28:27;;;;;;;14.13;10.50;;;16.90;99.90;;;;;;4991725;28;20093;-32
2021/07/09 05:30:55;;;;;;;15.43;12.30;;;16.80;99.90;;;;;;4991420;28;20486;-32
2021/07/09 05:33:21;;;;;;;15.57;11.93;;;16.90;99.90;;;;;;4991115;28;20021;-32
2021/07/09 05:35:47;;;;;;;17.38;11.60;;;16.90;99.90;;;;;;4991029;28;20351;-32
2021/07/09 05:38:12;;;;;;;16.13;12.23;;;16.90;99.90;;;;;;4990475;28;20025;-32
2021/07/09 05:40:38;;;;;;;13.10;10.93;;;16.90;99.90;;;;;;4990918;28;20030;-32
2021/07/09 05:43:04;;;;;;;17.13;12.60;;;17.00;99.90;;;;;;4990897;28;20049;-32
2021/07/09 05:45:30;;;;;;;14.80;11.38;;;17.00;99.90;;;;;;4990869;28;20536;-32
2021/07/09 05:47:56;;;;;;;16.40;12.93;;;17.00;99.90;;;;;;4989465;28;20042;-32
2021/07/09 05:50:21;;;;;;;12.77;9.82;;;17.10;99.90;;;;;;4990848;28;20026;-32
2021/07/09 05:52:48;;;;;;;14.93;11.20;;;17.10;99.90;;;;;;4990139;28;20088;-33
2021/07/09 05:55:14;;;;;;;13.40;10.15;;;17.20;99.90;;;;;;4990580;28;20042;-32
2021/07/09 05:57:45;;;;;;;13.05;10.30;;;17.10;99.90;;;;;;4990392;28;20100;-32
2021/07/09 06:00:11;;;;;;;10.98;9.43;;;17.20;99.90;;;;;;4985254;28;20105;-32
2021/07/09 06:02:37;;;;;;;10.75;8.95;;;17.20;99.90;;;;;;4990517;28;20430;-32
2021/07/09 06:05:07;;;;;;;11.38;8.88;;;17.20;99.90;;;;;;4987104;28;20097;-32
2021/07/09 06:07:33;;;;;;;10.07;8.98;;;17.30;99.90;;;;;;4989297;28;20096;-32
2021/07/09 06:09:58;;;;;;;11.30;8.35;;;17.30;99.90;;;;;;4988934;28;20596;-32
2021/07/09 06:12:24;;;;;;;9.32;7.75;;;17.40;99.90;;;;;;4990238;28;20104;-32
2021/07/09 06:14:53;;;;;;;8.32;7.32;;;17.40;99.90;;;;;;4988367;28;20141;-32
2021/07/09 06:17:19;;;;;;;8.20;6.93;;;17.40;99.90;;;;;;4991082;28;20459;-32
2021/07/09 06:19:45;;;;;;;9.40;8.07;;;17.50;99.90;;;;;;4988785;28;20030;-32
2021/07/09 06:22:10;;;;;;;8.75;7.22;;;17.50;99.90;;;;;;4989068;28;20034;-32
2021/07/09 06:24:36;;;;;;;7.35;6.55;;;17.60;99.90;;;;;;4989056;28;20509;-32
2021/07/09 06:27:03;;;;;;;7.15;6.45;;;17.60;99.90;;;;;;4989386;28;20041;-32
2021/07/09 06:29:28;;;;;;;8.13;6.32;;;17.60;99.90;;;;;;4988561;28;20022;-32
2021/07/09 06:31:54;;;;;;;7.50;6.65;;;17.70;99.90;;;;;;4988273;28;20026;-33
2021/07/09 06:34:23;;;;;;;7.03;6.32;;;17.70;99.90;;;;;;4988579;28;20042;-33
2021/07/09 06:36:48;;;;;;;7.28;5.97;;;17.80;99.90;;;;;;4988302;28;20397;-32
2021/07/09 06:39:20;;;;;;;6.13;4.93;;;17.80;99.90;;;;;;4987970;28;20026;-33
2021/07/09 06:41:45;;;;;;;7.45;6.30;;;17.90;99.90;;;;;;4989465;28;20034;-34
2021/07/09 06:44:14;;;;;;;6.38;5.78;;;18.00;99.90;;;;;;4989452;28;20441;-33
2021/07/09 06:46:39;;;;;;;5.72;5.07;;;18.10;99.90;;;;;;4988469;28;20026;-33
2021/07/09 06:49:05;;;;;;;6.90;5.20;;;18.10;99.90;;;;;;4989346;28;20029;-33
2021/07/09 06:51:31;;;;;;;5.07;4.55;;;18.20;99.90;;;;;;4990556;28;20125;-33
2021/07/09 06:53:56;;;;;;;5.78;4.93;;;18.30;99.90;;;;;;4989922;28;20077;-33
2021/07/09 06:56:22;;;;;;;5.28;4.78;;;18.30;99.90;;;;;;4989629;28;20430;-33
2021/07/09 06:58:47;;;;;;;7.50;5.55;;;18.40;99.90;;;;;;4989883;28;20022;-33
2021/07/09 07:01:13;;;;;;;5.80;4.78;;;18.40;99.90;;;;;;4989244;28;20450;-33
2021/07/09 07:03:38;;;;;;;4.60;3.92;;;18.50;99.90;;;;;;4989981;28;20094;-33
2021/07/09 07:06:11;;;;;;;5.63;4.93;;;18.50;99.90;;;;;;4989318;28;20555;-33
2021/07/09 07:08:37;;;;;;;4.90;4.32;;;18.60;99.90;;;;;;4980572;28;20023;-33
2021/07/09 07:11:02;;;;;;;6.53;4.75;;;18.50;99.90;;;;;;4988395;28;20092;-33
2021/07/09 07:13:28;;;;;;;4.93;4.18;;;18.60;99.90;;;;;;4989771;28;20474;-33
2021/07/09 07:15:53;;;;;;;7.35;5.05;;;18.70;99.90;;;;;;4989382;28;20038;-33
2021/07/09 07:18:19;;;;;;;4.68;4.28;;;18.70;99.90;;;;;;4988590;28;20054;-32
2021/07/09 07:20:47;;;;;;;5.32;4.70;;;18.70;99.90;;;;;;4989723;28;20084;-32
2021/07/09 07:23:17;;;;;;;4.97;4.53;;;18.80;99.90;;;;;;4989360;28;20033;-32
2021/07/09 07:25:44;;;;;;;5.05;4.15;;;18.80;99.90;;;;;;4988701;28;20039;-32
2021/07/09 07:28:10;;;;;;;6.57;5.50;;;18.80;99.90;;;;;;4988858;28;20061;-32
2021/07/09 07:30:36;;;;;;;5.22;4.65;;;18.90;99.90;;;;;;4989435;28;20050;-33
2021/07/09 07:33:03;;;;;;;5.47;4.80;;;18.90;99.90;;;;;;4991148;28;20027;-34
2021/07/09 07:35:30;;;;;;;5.50;4.95;;;18.90;99.90;;;;;;4993295;28;20029;-34
2021/07/09 07:37:57;;;;;;;5.40;4.90;;;18.90;99.90;;;;;;4991767;28;20493;-34
2021/07/09 07:40:22;;;;;;;4.35;3.95;;;19.00;99.90;;;;;;4993166;28;20117;-34
2021/07/09 07:42:49;;;;;;;5.28;3.80;;;19.00;99.90;;;;;;4992576;28;20442;-34
2021/07/09 07:45:15;;;;;;;5.63;4.20;;;19.10;99.60;;;;;;4992294;28;20125;-34
2021/07/09 07:47:41;;;;;;;5.82;3.80;;;19.20;99.40;;;;;;4992202;28;20713;-33
2021/07/09 07:50:07;;;;;;;4.45;3.55;;;19.20;99.30;;;;;;4991896;28;20022;-34
2021/07/09 07:52:33;;;;;;;5.22;3.80;;;19.30;99.20;;;;;;4992483;28;20073;-32
2021/07/09 07:54:59;;;;;;;4.22;3.83;;;19.30;98.70;;;;;;4992790;28;20037;-31
2021/07/09 07:57:26;;;;;;;4.53;4.10;;;19.40;98.70;;;;;;4992551;28;20027;-31
2021/07/09 07:59:51;;;;;;;7.35;4.00;;;19.40;98.30;;;;;;4991653;28;20067;-31
2021/07/09 08:02:17;;;;;;;5.22;3.30;;;19.40;97.80;;;;;;4992514;28;20057;-32
2021/07/09 08:04:45;;;;;;;4.82;4.35;;;19.40;97.60;;;;;;4992834;28;20073;-31
2021/07/09 08:07:10;;;;;;;4.10;3.70;;;19.50;97.70;;;;;;4992431;28;20030;-31
2021/07/09 08:09:36;;;;;;;4.82;4.03;;;19.50;97.70;;;;;;4991991;28;20609;-33
2021/07/09 08:12:02;;;;;;;5.22;3.92;;;19.60;97.80;;;;;;4991479;28;20081;-30
2021/07/09 08:14:28;;;;;;;5.22;4.50;;;19.50;97.70;;;;;;4991592;28;20033;-31
2021/07/09 08:16:56;;;;;;;4.50;4.10;;;19.60;97.80;;;;;;4992574;28;20064;-32
2021/07/09 08:19:22;;;;;;;5.85;3.97;;;19.70;97.80;;;;;;4992555;28;20065;-31
2021/07/09 08:21:48;;;;;;;4.43;3.95;;;19.80;97.60;;;;;;4992021;28;20031;-31
2021/07/09 08:24:15;;;;;;;5.07;4.57;;;19.80;97.50;;;;;;4991939;28;20034;-32
2021/07/09 08:26:40;;;;;;;4.55;3.70;;;19.90;97.40;;;;;;4991487;28;20057;-33
2021/07/09 08:29:06;;;;;;;4.22;3.67;;;20.00;97.40;;;;;;4990976;28;20595;-31
2021/07/09 08:31:35;;;;;;;3.60;3.30;;;20.10;97.40;;;;;;4992607;28;20373;-31
2021/07/09 08:34:01;;;;;;;3.35;2.85;;;20.20;97.40;;;;;;4990587;28;20014;-32
2021/07/09 08:36:26;;;;;;;4.60;3.80;;;20.30;97.30;;;;;;4991570;28;20077;-32
2021/07/09 08:38:53;;;;;;;6.85;5.15;;;20.40;96.90;;;;;;4989485;28;20113;-31
2021/07/09 08:41:19;;;;;;;5.55;4.40;;;20.40;96.20;;;;;;4991175;28;20461;-30
2021/07/09 08:43:45;;;;;;;3.55;3.25;;;20.40;96.30;;;;;;4991565;28;20036;-31
2021/07/09 08:46:12;;;;;;;5.57;4.03;;;20.50;96.40;;;;;;4991511;28;20030;-31
2021/07/09 08:48:40;;;;;;;5.32;3.60;;;20.50;96.50;;;;;;4991037;28;20018;-31
2021/07/09 08:51:06;;;;;;;3.20;2.88;;;20.60;96.60;;;;;;4990959;28;20033;-31
2021/07/09 08:53:32;;;;;;;5.07;3.67;;;20.60;96.70;;;;;;4992228;28;20030;-31
2021/07/09 08:55:58;;;;;;;5.65;3.80;;;20.70;96.90;;;;;;4990742;28;20134;-31
2021/07/09 08:58:23;;;;;;;5.82;4.63;;;20.80;97.00;;;;;;4989235;28;20551;-31
2021/07/09 09:00:49;;;;;;;3.70;3.30;;;21.00;96.80;;;;;;4991462;28;20524;-31
2021/07/09 09:03:22;;;;;;;3.92;3.50;;;21.10;96.80;;;;;;4989387;28;20057;-31
2021/07/09 09:05:48;;;;;;;4.05;3.65;;;21.20;96.70;;;;;;4990911;28;20029;-33
2021/07/09 09:08:19;;;;;;;5.65;4.30;;;21.40;96.60;;;;;;4991680;28;20023;-31
2021/07/09 09:10:51;;;;;;;5.80;4.93;;;21.60;96.50;;;;;;4990568;28;20054;-31
2021/07/09 09:13:23;;;;;;;5.60;4.95;;;21.70;96.20;;;;;;4991448;28;20478;-33
2021/07/09 09:16:00;;;;;;;7.43;6.47;;;21.80;96.20;;;;;;4991103;28;20822;-31
2021/07/09 09:18:31;;;;;;;6.53;5.72;;;21.90;96.00;;;;;;4991933;28;20377;-32
2021/07/09 09:21:06;;;;;;;6.97;5.72;;;21.90;95.80;;;;;;4990017;28;20036;-31
2021/07/09 09:23:35;;;;;;;8.05;6.35;;;21.80;95.80;;;;;;4990445;28;20080;-30
2021/07/09 09:26:02;;;;;;;8.20;6.47;;;21.80;95.80;;;;;;4987658;28;20454;-31
2021/07/09 09:28:29;;;;;;;12.05;8.52;;;21.90;95.90;;;;;;4981405;28;20022;-31
2021/07/09 09:30:57;;;;;;;11.15;9.20;;;21.90;95.70;;;;;;4987317;28;20026;-30
2021/07/09 09:33:31;;;;;;;12.80;8.43;;;21.90;95.50;;;;;;4988673;28;20077;-31
2021/07/09 09:35:57;;;;;;;10.93;7.90;;;22.00;95.50;;;;;;4990992;28;20508;-30
2021/07/09 09:38:30;;;;;;;10.93;8.23;;;22.00;95.60;;;;;;4990177;28;20026;-31
2021/07/09 09:40:58;;;;;;;8.82;7.00;;;22.10;95.50;;;;;;4990540;28;20088;-31
2021/07/09 09:43:26;;;;;;;7.75;6.65;;;22.10;95.60;;;;;;4991543;28;20050;-31
2021/07/09 09:46:00;;;;;;;7.28;6.57;;;22.10;95.80;;;;;;4990152;28;20053;-31
2021/07/09 09:48:42;;;;;;;10.98;8.43;;;22.10;96.00;;;;;;4988510;28;20025;-31
2021/07/09 09:51:23;;;;;;;8.77;7.15;;;22.00;95.90;;;;;;4990066;28;20026;-31
2021/07/09 09:53:58;;;;;;;6.82;5.85;;;22.10;96.10;;;;;;4988651;28;20018;-33
2021/07/09 09:56:50;;;;;;;6.35;5.38;;;22.20;96.00;;;;;;4990413;28;20026;-33
2021/07/09 09:59:24;;;;;;;8.60;7.47;;;22.50;96.00;;;;;;4974592;28;20512;-33
2021/07/09 10:02:02;;;;;;;8.57;7.68;;;22.60;95.90;;;;;;4990356;28;20038;-33
2021/07/09 10:04:29;;;;;;;8.40;6.68;;;22.60;96.00;;;;;;4980338;28;20026;-33
2021/07/09 10:06:55;;;;;;;7.05;6.35;;;22.80;96.00;;;;;;4989143;28;20025;-33
2021/07/09 10:09:22;;;;;;;6.47;5.85;;;22.90;95.90;;;;;;4990496;28;20488;-33
2021/07/09 10:11:48;;;;;;;7.45;6.70;;;23.00;95.90;;;;;;4990229;28;20038;-34
2021/07/09 10:14:16;;;;;;;8.80;7.78;;;23.20;95.90;;;;;;4990276;28;20023;-33
2021/07/09 10:16:44;;;;;;;7.65;6.80;;;23.30;95.70;;;;;;4990116;28;20037;-33
2021/07/09 10:19:14;;;;;;;7.75;6.95;;;23.30;95.40;;;;;;4990066;28;20034;-32
2021/07/09 10:21:40;;;;;;;9.20;7.78;;;23.30;95.40;;;;;;4988978;28;20038;-33
2021/07/09 10:24:07;;;;;;;6.18;5.57;;;23.40;95.30;;;;;;4989397;28;20043;-33
2021/07/09 10:26:40;;;;;;;8.80;6.13;;;23.40;95.40;;;;;;4990437;28;20026;-31
2021/07/09 10:29:15;;;;;;;7.63;6.80;;;23.50;95.10;;;;;;4989153;28;20026;-31
2021/07/09 10:31:43;;;;;;;10.20;8.95;;;23.60;94.80;;;;;;4970213;28;20031;-31
2021/07/09 10:34:31;;;;;;;8.52;7.05;;;23.70;94.70;;;;;;4984629;28;20117;-31
2021/07/09 10:37:04;;;;;;;8.27;6.55;;;23.80;94.50;;;;;;4973135;28;20030;-33
2021/07/09 10:39:40;;;;;;;7.65;6.82;;;23.80;94.40;;;;;;4988827;28;20050;-33
2021/07/09 10:42:17;;;;;;;5.90;5.40;;;23.90;94.30;;;;;;4979843;28;20518;-32
2021/07/09 10:45:18;;;;;;;7.40;6.70;;;23.90;94.10;;;;;;4983191;28;20133;-31
2021/07/09 10:48:19;;;;;;;7.30;6.60;;;24.10;93.90;;;;;;4957083;28;20049;-31
2021/07/09 10:50:49;;;;;;;7.88;7.00;;;24.20;93.70;;;;;;4986281;28;20134;-32
2021/07/09 10:53:14;;;;;;;7.10;5.80;;;24.10;93.60;;;;;;4988841;28;20033;-34
2021/07/09 10:55:58;;;;;;;6.45;5.53;;;24.10;93.70;;;;;;4988591;28;20014;-34
2021/07/09 10:58:27;;;;;;;6.40;5.60;;;24.10;93.60;;;;;;4989686;28;20038;-31
2021/07/09 11:01:04;;;;;;;5.70;5.13;;;24.00;93.70;;;;;;4988899;28;20413;-32
2021/07/09 11:03:44;;;;;;;6.13;5.53;;;24.10;93.50;;;;;;4988892;28;20033;-29
2021/07/09 11:06:15;;;;;;;6.60;5.85;;;24.10;93.50;;;;;;4989994;28;20516;-32
2021/07/09 11:08:43;;;;;;;6.72;5.47;;;24.10;93.40;;;;;;4993170;28;20034;-32
2021/07/09 11:11:16;;;;;;;5.50;5.00;;;24.10;93.20;;;;;;4989717;28;20055;-32
2021/07/09 11:13:42;;;;;;;5.68;5.18;;;24.10;93.20;;;;;;4984133;28;20101;-32
2021/07/09 11:16:20;;;;;;;5.63;5.10;;;24.20;93.20;;;;;;4992439;28;20473;-32
2021/07/09 11:18:52;;;;;;;6.63;5.40;;;24.30;92.90;;;;;;4993052;28;20030;-32
2021/07/09 11:21:37;;;;;;;5.37;4.87;;;24.30;92.60;;;;;;4992732;28;20096;-30
2021/07/09 11:24:18;;;;;;;5.68;4.97;;;24.30;92.40;;;;;;4961493;28;20270;-30
2021/07/09 11:26:49;;;;;;;6.00;5.30;;;24.30;91.80;;;;;;4989984;28;20106;-30
2021/07/09 11:29:36;;;;;;;6.75;5.93;;;24.30;92.00;;;;;;4992312;28;20421;-30
2021/07/09 11:32:14;;;;;;;7.88;6.50;;;24.20;92.40;;;;;;4989933;28;20109;-30
2021/07/09 11:34:46;;;;;;;6.00;5.40;;;24.10;92.60;;;;;;4992141;28;20103;-30
2021/07/09 11:37:12;;;;;;;7.07;5.40;;;24.10;92.70;;;;;;4989506;28;20054;-29
2021/07/09 11:39:43;;;;;;;6.93;5.82;;;24.00;92.20;;;;;;4983462;28;20489;-30
2021/07/09 11:42:13;;;;;;;6.78;5.53;;;24.00;92.20;;;;;;4989558;28;20080;-31
2021/07/09 11:44:46;;;;;;;6.65;5.40;;;24.10;92.30;;;;;;4990323;28;20389;-30
2021/07/09 11:47:18;;;;;;;;;;;24.10;92.40;;;;;;4992726;28;20026;-30
2021/07/09 11:49:52;;;;;;;8.85;6.80;;;24.10;92.20;;;;;;4992958;28;19933;-31
2021/07/09 11:52:23;;;;;;;7.05;5.88;;;24.20;91.80;;;;;;4991627;28;20019;-31
2021/07/09 11:54:49;;;;;;;6.10;5.50;;;24.10;91.90;;;;;;4995180;28;20301;-31
2021/07/09 11:57:23;;;;;;;7.85;6.30;;;24.20;91.60;;;;;;4992509;28;20117;-31
2021/07/09 11:59:51;;;;;;;7.53;6.60;;;24.30;91.30;;;;;;4992221;28;20540;-31
2021/07/09 12:02:18;;;;;;;6.40;5.80;;;24.20;91.10;;;;;;4992004;28;20514;-31
2021/07/09 12:04:49;;;;;;;6.60;5.63;;;24.20;91.40;;;;;;4982798;28;20030;-31
2021/07/09 12:07:22;;;;;;;6.82;6.00;;;24.30;91.60;;;;;;4987475;28;20046;-31
2021/07/09 12:09:54;;;;;;;;;;;24.30;91.70;;;;;;4992834;28;20042;-31
2021/07/09 12:12:23;;;;;;;8.25;6.93;;;24.30;91.30;;;;;;4991697;28;19921;-31
2021/07/09 12:15:24;;;;;;;7.50;6.68;;;24.10;90.70;;;;;;4992872;28;20072;-34
2021/07/09 12:17:51;;;;;;;6.38;5.78;;;23.80;91.20;;;;;;4990005;28;20033;-34
2021/07/09 12:20:19;;;;;;;6.05;5.45;;;23.80;91.40;;;;;;4990683;28;20036;-30
2021/07/09 12:22:56;;;;;;;5.47;4.88;;;23.70;91.40;;;;;;4990399;28;20034;-30
2021/07/09 12:25:32;;;;;;;5.75;4.63;;;23.70;91.20;;;;;;4992828;28;20018;-32
2021/07/09 12:28:22;;;;;;;4.53;4.13;;;23.70;91.30;;;;;;4989363;28;20031;-32
2021/07/09 12:30:50;;;;;;;4.38;3.90;;;23.70;91.50;;;;;;4970619;28;20481;-31
2021/07/09 12:33:28;;;;;;;5.03;4.10;;;23.80;91.60;;;;;;4985233;28;20350;-30
2021/07/09 12:36:02;;;;;;;5.00;4.53;;;23.90;91.50;;;;;;4970275;28;20027;-31
2021/07/09 12:38:29;;;;;;;5.15;4.60;;;23.90;91.00;;;;;;4986662;28;20081;-31
2021/07/09 12:41:02;;;;;;;5.40;4.00;;;23.90;90.30;;;;;;4970082;28;20385;-32
2021/07/09 12:43:29;;;;;;;6.30;4.28;;;23.80;90.30;;;;;;4986817;28;20398;-32